Login to view Products
 
Sunday, January 26, 2020 (12:06 UTC)
Abu Dhabi International Airport
Last Updated: 26-Jan-2020 (12:05Z)
Wind Dir/Speed: W at 17 kt
Temperature: 16.9°C
Rel. Humidity: 51 %
Pressure: 1019.4 hPa
Visibility: 8000 m
ACTUALS:
  • METAR OMAA 261200Z 28017KT 8000 SCT035 17/06 Q1019 NOSIG
  • TAF OMAA 261100Z 2612/2718 28017KT 7000 SCT030 PROB40 TEMPO 2612/2616 28024KT 4000 BLDU PROB30 TEMPO 2612/2620 VRB15G25KT 4000 SHRA FEW040TCU=
D:\Input Parser\Destinations\Final\11\OMAAL121811001793798844.txt
1